sensor_id;sensor_type;location;lat;lon;timestamp;P1;durP1;ratioP1;P2;durP2;ratioP2
18304;SDS011;9278;52.156;21.048;2022-08-21T00:01:55;11.65;;;5.07;;
18304;SDS011;9278;52.156;21.048;2022-08-21T00:04:23;11.95;;;5.07;;
18304;SDS011;9278;52.156;21.048;2022-08-21T00:06:55;7.55;;;5.00;;
18304;SDS011;9278;52.156;21.048;2022-08-21T00:09:24;9.73;;;5.15;;
18304;SDS011;9278;52.156;21.048;2022-08-21T00:11:53;8.40;;;5.43;;
18304;SDS011;9278;52.156;21.048;2022-08-21T00:14:21;10.95;;;5.70;;
18304;SDS011;9278;52.156;21.048;2022-08-21T00:16:49;9.77;;;5.55;;
18304;SDS011;9278;52.156;21.048;2022-08-21T00:19:21;10.82;;;5.28;;
18304;SDS011;9278;52.156;21.048;2022-08-21T00:21:51;9.27;;;5.93;;
18304;SDS011;9278;52.156;21.048;2022-08-21T00:24:19;9.27;;;5.07;;
18304;SDS011;9278;52.156;21.048;2022-08-21T00:26:48;10.02;;;5.50;;
18304;SDS011;9278;52.156;21.048;2022-08-21T00:29:17;11.05;;;5.78;;
18304;SDS011;9278;52.156;21.048;2022-08-21T00:31:45;7.35;;;5.57;;
18304;SDS011;9278;52.156;21.048;2022-08-21T00:34:13;9.95;;;5.78;;
18304;SDS011;9278;52.156;21.048;2022-08-21T00:36:43;9.35;;;5.45;;
18304;SDS011;9278;52.156;21.048;2022-08-21T00:39:11;7.93;;;5.32;;
18304;SDS011;9278;52.156;21.048;2022-08-21T00:41:40;8.98;;;5.05;;
18304;SDS011;9278;52.156;21.048;2022-08-21T00:44:10;8.43;;;5.85;;
18304;SDS011;9278;52.156;21.048;2022-08-21T00:46:41;11.30;;;5.85;;
18304;SDS011;9278;52.156;21.048;2022-08-21T00:49:10;12.70;;;5.88;;
18304;SDS011;9278;52.156;21.048;2022-08-21T00:51:41;13.07;;;5.80;;
18304;SDS011;9278;52.156;21.048;2022-08-21T00:54:15;9.48;;;5.90;;
18304;SDS011;9278;52.156;21.048;2022-08-21T00:56:45;7.88;;;5.68;;
18304;SDS011;9278;52.156;21.048;2022-08-21T00:59:16;7.65;;;5.80;;
18304;SDS011;9278;52.156;21.048;2022-08-21T01:01:46;10.65;;;5.70;;
18304;SDS011;9278;52.156;21.048;2022-08-21T01:04:14;10.32;;;5.50;;
18304;SDS011;9278;52.156;21.048;2022-08-21T01:06:44;9.55;;;6.03;;
18304;SDS011;9278;52.156;21.048;2022-08-21T01:09:13;8.85;;;5.57;;
18304;SDS011;9278;52.156;21.048;2022-08-21T01:11:42;10.77;;;5.50;;
18304;SDS011;9278;52.156;21.048;2022-08-21T01:14:10;10.07;;;5.60;;
18304;SDS011;9278;52.156;21.048;2022-08-21T01:16:40;10.35;;;5.80;;
18304;SDS011;9278;52.156;21.048;2022-08-21T01:19:12;12.77;;;5.93;;
18304;SDS011;9278;52.156;21.048;2022-08-21T01:21:42;9.55;;;5.85;;
18304;SDS011;9278;52.156;21.048;2022-08-21T01:24:11;8.77;;;5.57;;
18304;SDS011;9278;52.156;21.048;2022-08-21T01:26:39;7.70;;;5.63;;
18304;SDS011;9278;52.156;21.048;2022-08-21T01:29:15;8.70;;;5.35;;
18304;SDS011;9278;52.156;21.048;2022-08-21T01:31:50;12.55;;;5.53;;
18304;SDS011;9278;52.156;21.048;2022-08-21T01:34:18;9.32;;;5.95;;
18304;SDS011;9278;52.156;21.048;2022-08-21T01:36:48;10.40;;;5.90;;
18304;SDS011;9278;52.156;21.048;2022-08-21T01:39:16;13.70;;;5.72;;
18304;SDS011;9278;52.156;21.048;2022-08-21T01:41:45;9.95;;;5.75;;
18304;SDS011;9278;52.156;21.048;2022-08-21T01:44:13;8.85;;;5.55;;
18304;SDS011;9278;52.156;21.048;2022-08-21T01:46:41;8.63;;;5.50;;
18304;SDS011;9278;52.156;21.048;2022-08-21T01:49:09;9.18;;;5.65;;
18304;SDS011;9278;52.156;21.048;2022-08-21T01:51:37;12.45;;;5.35;;
18304;SDS011;9278;52.156;21.048;2022-08-21T01:54:07;9.45;;;5.85;;
18304;SDS011;9278;52.156;21.048;2022-08-21T01:56:36;13.15;;;5.57;;
18304;SDS011;9278;52.156;21.048;2022-08-21T01:59:05;8.18;;;6.13;;
18304;SDS011;9278;52.156;21.048;2022-08-21T02:01:35;8.38;;;5.95;;
18304;SDS011;9278;52.156;21.048;2022-08-21T02:04:06;8.63;;;5.70;;
18304;SDS011;9278;52.156;21.048;2022-08-21T02:06:35;7.95;;;5.70;;
18304;SDS011;9278;52.156;21.048;2022-08-21T02:09:04;10.75;;;5.75;;
18304;SDS011;9278;52.156;21.048;2022-08-21T02:11:35;10.60;;;5.72;;
18304;SDS011;9278;52.156;21.048;2022-08-21T02:14:06;8.48;;;5.70;;
18304;SDS011;9278;52.156;21.048;2022-08-21T02:16:35;9.35;;;6.03;;
18304;SDS011;9278;52.156;21.048;2022-08-21T02:19:03;11.43;;;5.75;;
18304;SDS011;9278;52.156;21.048;2022-08-21T02:21:32;12.65;;;6.38;;
18304;SDS011;9278;52.156;21.048;2022-08-21T02:24:00;11.73;;;6.00;;
18304;SDS011;9278;52.156;21.048;2022-08-21T02:26:28;8.40;;;5.85;;
18304;SDS011;9278;52.156;21.048;2022-08-21T02:28:57;8.80;;;5.82;;
18304;SDS011;9278;52.156;21.048;2022-08-21T02:31:26;9.55;;;5.72;;
18304;SDS011;9278;52.156;21.048;2022-08-21T02:33:55;13.90;;;6.43;;
18304;SDS011;9278;52.156;21.048;2022-08-21T02:36:23;12.32;;;6.35;;
18304;SDS011;9278;52.156;21.048;2022-08-21T02:38:51;11.82;;;6.40;;
18304;SDS011;9278;52.156;21.048;2022-08-21T02:41:20;11.43;;;6.35;;
18304;SDS011;9278;52.156;21.048;2022-08-21T02:43:49;10.98;;;6.15;;
18304;SDS011;9278;52.156;21.048;2022-08-21T02:46:19;13.82;;;6.13;;
18304;SDS011;9278;52.156;21.048;2022-08-21T02:48:47;11.73;;;6.20;;
18304;SDS011;9278;52.156;21.048;2022-08-21T02:51:16;10.25;;;6.03;;
18304;SDS011;9278;52.156;21.048;2022-08-21T02:53:46;9.75;;;5.90;;
18304;SDS011;9278;52.156;21.048;2022-08-21T02:56:15;9.20;;;5.95;;
18304;SDS011;9278;52.156;21.048;2022-08-21T02:58:47;8.63;;;5.72;;
18304;SDS011;9278;52.156;21.048;2022-08-21T03:01:18;7.95;;;5.75;;
18304;SDS011;9278;52.156;21.048;2022-08-21T03:03:47;6.68;;;5.53;;
18304;SDS011;9278;52.156;21.048;2022-08-21T03:06:17;10.00;;;5.90;;
18304;SDS011;9278;52.156;21.048;2022-08-21T03:08:47;8.88;;;5.80;;
18304;SDS011;9278;52.156;21.048;2022-08-21T03:11:16;8.63;;;6.00;;
18304;SDS011;9278;52.156;21.048;2022-08-21T03:13:45;10.23;;;5.65;;
18304;SDS011;9278;52.156;21.048;2022-08-21T03:16:14;10.02;;;5.65;;
18304;SDS011;9278;52.156;21.048;2022-08-21T03:18:43;9.70;;;5.85;;
18304;SDS011;9278;52.156;21.048;2022-08-21T03:21:11;8.52;;;5.78;;
18304;SDS011;9278;52.156;21.048;2022-08-21T03:23:40;12.82;;;6.57;;
18304;SDS011;9278;52.156;21.048;2022-08-21T03:26:09;10.98;;;6.15;;
18304;SDS011;9278;52.156;21.048;2022-08-21T03:28:38;11.40;;;6.32;;
18304;SDS011;9278;52.156;21.048;2022-08-21T03:31:06;11.68;;;6.35;;
18304;SDS011;9278;52.156;21.048;2022-08-21T03:33:35;10.23;;;5.75;;
18304;SDS011;9278;52.156;21.048;2022-08-21T03:36:05;9.93;;;6.05;;
18304;SDS011;9278;52.156;21.048;2022-08-21T03:38:35;12.65;;;6.30;;
18304;SDS011;9278;52.156;21.048;2022-08-21T03:41:04;11.85;;;6.55;;
18304;SDS011;9278;52.156;21.048;2022-08-21T03:43:34;9.65;;;5.95;;
18304;SDS011;9278;52.156;21.048;2022-08-21T03:46:02;10.13;;;5.90;;
18304;SDS011;9278;52.156;21.048;2022-08-21T03:48:32;9.43;;;5.93;;
18304;SDS011;9278;52.156;21.048;2022-08-21T03:51:02;8.20;;;6.00;;
18304;SDS011;9278;52.156;21.048;2022-08-21T03:53:31;9.70;;;6.15;;
18304;SDS011;9278;52.156;21.048;2022-08-21T03:56:00;8.43;;;6.20;;
18304;SDS011;9278;52.156;21.048;2022-08-21T03:58:28;11.20;;;6.13;;
18304;SDS011;9278;52.156;21.048;2022-08-21T04:00:57;10.30;;;5.93;;
18304;SDS011;9278;52.156;21.048;2022-08-21T04:03:27;8.85;;;5.97;;
18304;SDS011;9278;52.156;21.048;2022-08-21T04:05:56;10.45;;;6.20;;
18304;SDS011;9278;52.156;21.048;2022-08-21T04:08:24;14.18;;;6.57;;
18304;SDS011;9278;52.156;21.048;2022-08-21T04:10:54;10.50;;;6.25;;
18304;SDS011;9278;52.156;21.048;2022-08-21T04:13:24;7.57;;;6.10;;
18304;SDS011;9278;52.156;21.048;2022-08-21T04:15:54;8.68;;;6.38;;
18304;SDS011;9278;52.156;21.048;2022-08-21T04:18:22;7.53;;;5.63;;
18304;SDS011;9278;52.156;21.048;2022-08-21T04:20:51;9.00;;;5.82;;
18304;SDS011;9278;52.156;21.048;2022-08-21T04:23:21;9.82;;;5.90;;
18304;SDS011;9278;52.156;21.048;2022-08-21T04:25:50;11.57;;;5.65;;
18304;SDS011;9278;52.156;21.048;2022-08-21T04:28:21;10.90;;;6.18;;
18304;SDS011;9278;52.156;21.048;2022-08-21T04:30:54;11.88;;;5.68;;
18304;SDS011;9278;52.156;21.048;2022-08-21T04:33:23;11.38;;;5.65;;
18304;SDS011;9278;52.156;21.048;2022-08-21T04:35:51;9.75;;;5.68;;
18304;SDS011;9278;52.156;21.048;2022-08-21T04:38:20;10.10;;;6.00;;
18304;SDS011;9278;52.156;21.048;2022-08-21T04:40:48;7.03;;;5.35;;
18304;SDS011;9278;52.156;21.048;2022-08-21T04:43:17;8.60;;;5.72;;
18304;SDS011;9278;52.156;21.048;2022-08-21T04:45:48;10.65;;;5.65;;
18304;SDS011;9278;52.156;21.048;2022-08-21T04:48:19;7.07;;;5.57;;
18304;SDS011;9278;52.156;21.048;2022-08-21T04:50:50;9.02;;;5.50;;
18304;SDS011;9278;52.156;21.048;2022-08-21T04:53:23;6.40;;;5.05;;
18304;SDS011;9278;52.156;21.048;2022-08-21T04:55:54;7.45;;;5.38;;
18304;SDS011;9278;52.156;21.048;2022-08-21T04:58:25;8.52;;;5.60;;
18304;SDS011;9278;52.156;21.048;2022-08-21T05:00:56;9.15;;;5.70;;
18304;SDS011;9278;52.156;21.048;2022-08-21T05:03:25;7.95;;;5.35;;
18304;SDS011;9278;52.156;21.048;2022-08-21T05:05:54;7.88;;;5.22;;
18304;SDS011;9278;52.156;21.048;2022-08-21T05:08:23;9.70;;;4.97;;
18304;SDS011;9278;52.156;21.048;2022-08-21T05:10:54;12.05;;;5.63;;
18304;SDS011;9278;52.156;21.048;2022-08-21T05:13:26;11.60;;;5.63;;
18304;SDS011;9278;52.156;21.048;2022-08-21T05:15:56;8.82;;;5.60;;
18304;SDS011;9278;52.156;21.048;2022-08-21T05:18:25;7.68;;;5.10;;
18304;SDS011;9278;52.156;21.048;2022-08-21T05:20:53;9.05;;;5.40;;
18304;SDS011;9278;52.156;21.048;2022-08-21T05:23:21;9.55;;;5.55;;
18304;SDS011;9278;52.156;21.048;2022-08-21T05:25:49;10.88;;;5.30;;
18304;SDS011;9278;52.156;21.048;2022-08-21T05:28:17;13.23;;;5.20;;
18304;SDS011;9278;52.156;21.048;2022-08-21T05:30:46;8.57;;;5.28;;
18304;SDS011;9278;52.156;21.048;2022-08-21T05:33:15;11.35;;;5.25;;
18304;SDS011;9278;52.156;21.048;2022-08-21T05:35:43;7.30;;;5.50;;
18304;SDS011;9278;52.156;21.048;2022-08-21T05:38:12;7.60;;;4.70;;
18304;SDS011;9278;52.156;21.048;2022-08-21T05:40:43;7.13;;;4.93;;
18304;SDS011;9278;52.156;21.048;2022-08-21T05:43:12;7.63;;;5.03;;
18304;SDS011;9278;52.156;21.048;2022-08-21T05:45:41;14.75;;;5.25;;
18304;SDS011;9278;52.156;21.048;2022-08-21T05:48:10;7.40;;;5.15;;
18304;SDS011;9278;52.156;21.048;2022-08-21T05:50:41;8.25;;;5.20;;
18304;SDS011;9278;52.156;21.048;2022-08-21T05:53:10;8.35;;;4.88;;
18304;SDS011;9278;52.156;21.048;2022-08-21T05:55:39;7.95;;;4.80;;
18304;SDS011;9278;52.156;21.048;2022-08-21T05:58:12;7.28;;;4.90;;
18304;SDS011;9278;52.156;21.048;2022-08-21T06:00:41;18.33;;;4.80;;
18304;SDS011;9278;52.156;21.048;2022-08-21T06:03:12;9.93;;;5.30;;
18304;SDS011;9278;52.156;21.048;2022-08-21T06:05:43;9.50;;;5.50;;
18304;SDS011;9278;52.156;21.048;2022-08-21T06:08:12;7.43;;;5.15;;
18304;SDS011;9278;52.156;21.048;2022-08-21T06:10:40;8.70;;;5.78;;
18304;SDS011;9278;52.156;21.048;2022-08-21T06:13:08;8.82;;;5.60;;
18304;SDS011;9278;52.156;21.048;2022-08-21T06:15:37;7.38;;;4.60;;
18304;SDS011;9278;52.156;21.048;2022-08-21T06:18:06;7.65;;;5.20;;
18304;SDS011;9278;52.156;21.048;2022-08-21T06:20:34;6.88;;;5.20;;
18304;SDS011;9278;52.156;21.048;2022-08-21T06:23:04;9.63;;;5.78;;
18304;SDS011;9278;52.156;21.048;2022-08-21T06:25:33;8.68;;;5.22;;
18304;SDS011;9278;52.156;21.048;2022-08-21T06:28:02;10.73;;;7.03;;
18304;SDS011;9278;52.156;21.048;2022-08-21T06:30:40;8.98;;;5.60;;
18304;SDS011;9278;52.156;21.048;2022-08-21T06:33:08;10.90;;;5.50;;
18304;SDS011;9278;52.156;21.048;2022-08-21T06:35:37;9.45;;;5.47;;
18304;SDS011;9278;52.156;21.048;2022-08-21T06:38:08;7.97;;;5.20;;
18304;SDS011;9278;52.156;21.048;2022-08-21T06:40:36;8.80;;;5.15;;
18304;SDS011;9278;52.156;21.048;2022-08-21T06:43:13;8.45;;;4.90;;
18304;SDS011;9278;52.156;21.048;2022-08-21T06:45:43;7.43;;;5.13;;
18304;SDS011;9278;52.156;21.048;2022-08-21T06:48:11;7.22;;;5.30;;
18304;SDS011;9278;52.156;21.048;2022-08-21T06:50:44;8.10;;;4.88;;
18304;SDS011;9278;52.156;21.048;2022-08-21T06:53:15;9.30;;;5.18;;
18304;SDS011;9278;52.156;21.048;2022-08-21T06:55:44;10.50;;;5.47;;
18304;SDS011;9278;52.156;21.048;2022-08-21T06:58:13;7.70;;;5.53;;
18304;SDS011;9278;52.156;21.048;2022-08-21T07:00:43;9.93;;;5.30;;
18304;SDS011;9278;52.156;21.048;2022-08-21T07:03:16;5.50;;;4.88;;
18304;SDS011;9278;52.156;21.048;2022-08-21T07:05:45;11.30;;;5.07;;
18304;SDS011;9278;52.156;21.048;2022-08-21T07:08:15;9.18;;;5.10;;
18304;SDS011;9278;52.156;21.048;2022-08-21T07:10:43;7.13;;;5.18;;
18304;SDS011;9278;52.156;21.048;2022-08-21T07:13:12;7.00;;;4.93;;
18304;SDS011;9278;52.156;21.048;2022-08-21T07:15:40;9.88;;;5.22;;
18304;SDS011;9278;52.156;21.048;2022-08-21T07:18:08;6.47;;;5.13;;
18304;SDS011;9278;52.156;21.048;2022-08-21T07:20:37;8.38;;;5.25;;
18304;SDS011;9278;52.156;21.048;2022-08-21T07:23:05;10.10;;;5.30;;
18304;SDS011;9278;52.156;21.048;2022-08-21T07:25:38;9.00;;;4.57;;
18304;SDS011;9278;52.156;21.048;2022-08-21T07:28:06;9.45;;;5.60;;
18304;SDS011;9278;52.156;21.048;2022-08-21T07:30:34;9.80;;;5.20;;
18304;SDS011;9278;52.156;21.048;2022-08-21T07:33:02;12.75;;;4.93;;
18304;SDS011;9278;52.156;21.048;2022-08-21T07:35:30;9.20;;;4.65;;
18304;SDS011;9278;52.156;21.048;2022-08-21T07:37:59;8.60;;;4.80;;
18304;SDS011;9278;52.156;21.048;2022-08-21T07:40:27;11.55;;;5.07;;
18304;SDS011;9278;52.156;21.048;2022-08-21T07:42:57;6.15;;;5.10;;
18304;SDS011;9278;52.156;21.048;2022-08-21T07:45:25;7.50;;;4.70;;
18304;SDS011;9278;52.156;21.048;2022-08-21T07:47:54;7.80;;;4.85;;
18304;SDS011;9278;52.156;21.048;2022-08-21T07:50:23;9.98;;;5.22;;
18304;SDS011;9278;52.156;21.048;2022-08-21T07:52:51;7.20;;;5.10;;
18304;SDS011;9278;52.156;21.048;2022-08-21T07:55:20;6.72;;;5.00;;
18304;SDS011;9278;52.156;21.048;2022-08-21T07:57:49;8.90;;;5.20;;
18304;SDS011;9278;52.156;21.048;2022-08-21T08:00:20;8.52;;;5.10;;
18304;SDS011;9278;52.156;21.048;2022-08-21T08:02:50;10.27;;;4.90;;
18304;SDS011;9278;52.156;21.048;2022-08-21T08:05:21;6.40;;;5.03;;
18304;SDS011;9278;52.156;21.048;2022-08-21T08:07:51;5.75;;;4.97;;
18304;SDS011;9278;52.156;21.048;2022-08-21T08:10:20;12.00;;;5.05;;
18304;SDS011;9278;52.156;21.048;2022-08-21T08:12:49;8.02;;;5.00;;
18304;SDS011;9278;52.156;21.048;2022-08-21T08:15:21;10.43;;;5.15;;
18304;SDS011;9278;52.156;21.048;2022-08-21T08:17:50;7.28;;;4.70;;
18304;SDS011;9278;52.156;21.048;2022-08-21T08:20:19;9.68;;;4.78;;
18304;SDS011;9278;52.156;21.048;2022-08-21T08:22:48;9.68;;;4.95;;
18304;SDS011;9278;52.156;21.048;2022-08-21T08:25:16;6.40;;;4.60;;
18304;SDS011;9278;52.156;21.048;2022-08-21T08:27:47;9.18;;;5.30;;
18304;SDS011;9278;52.156;21.048;2022-08-21T08:30:16;10.27;;;5.32;;
18304;SDS011;9278;52.156;21.048;2022-08-21T08:32:47;7.43;;;4.97;;
18304;SDS011;9278;52.156;21.048;2022-08-21T08:35:15;8.07;;;4.78;;
18304;SDS011;9278;52.156;21.048;2022-08-21T08:37:49;8.40;;;4.55;;
18304;SDS011;9278;52.156;21.048;2022-08-21T08:40:18;6.15;;;4.80;;
18304;SDS011;9278;52.156;21.048;2022-08-21T08:42:52;8.48;;;4.75;;
18304;SDS011;9278;52.156;21.048;2022-08-21T08:45:21;8.75;;;4.60;;
18304;SDS011;9278;52.156;21.048;2022-08-21T08:47:56;7.50;;;4.50;;
18304;SDS011;9278;52.156;21.048;2022-08-21T08:50:32;8.57;;;4.45;;
18304;SDS011;9278;52.156;21.048;2022-08-21T08:53:06;9.48;;;4.40;;
18304;SDS011;9278;52.156;21.048;2022-08-21T08:55:43;6.60;;;4.70;;
18304;SDS011;9278;52.156;21.048;2022-08-21T08:58:13;6.40;;;4.50;;
18304;SDS011;9278;52.156;21.048;2022-08-21T09:00:47;8.68;;;4.40;;
18304;SDS011;9278;52.156;21.048;2022-08-21T09:03:18;7.25;;;4.55;;
18304;SDS011;9278;52.156;21.048;2022-08-21T09:05:52;6.00;;;3.72;;
18304;SDS011;9278;52.156;21.048;2022-08-21T09:08:32;6.30;;;4.15;;
18304;SDS011;9278;52.156;21.048;2022-08-21T09:11:17;6.60;;;4.63;;
18304;SDS011;9278;52.156;21.048;2022-08-21T09:13:55;6.13;;;4.03;;
18304;SDS011;9278;52.156;21.048;2022-08-21T09:16:35;8.23;;;4.40;;
18304;SDS011;9278;52.156;21.048;2022-08-21T09:19:14;5.40;;;4.00;;
18304;SDS011;9278;52.156;21.048;2022-08-21T09:21:55;10.20;;;4.07;;
18304;SDS011;9278;52.156;21.048;2022-08-21T09:24:31;6.32;;;4.00;;
18304;SDS011;9278;52.156;21.048;2022-08-21T09:27:04;9.20;;;4.60;;
18304;SDS011;9278;52.156;21.048;2022-08-21T09:29:35;7.00;;;3.78;;
18304;SDS011;9278;52.156;21.048;2022-08-21T09:32:10;5.53;;;3.58;;
18304;SDS011;9278;52.156;21.048;2022-08-21T09:34:56;5.03;;;3.67;;
18304;SDS011;9278;52.156;21.048;2022-08-21T09:37:26;9.73;;;3.97;;
18304;SDS011;9278;52.156;21.048;2022-08-21T09:39:56;6.40;;;4.10;;
18304;SDS011;9278;52.156;21.048;2022-08-21T09:42:27;6.40;;;3.72;;
18304;SDS011;9278;52.156;21.048;2022-08-21T09:45:06;5.25;;;3.67;;
18304;SDS011;9278;52.156;21.048;2022-08-21T09:47:37;5.93;;;3.70;;
18304;SDS011;9278;52.156;21.048;2022-08-21T09:50:12;4.68;;;3.40;;
18304;SDS011;9278;52.156;21.048;2022-08-21T09:52:43;6.50;;;3.80;;
18304;SDS011;9278;52.156;21.048;2022-08-21T09:55:19;7.32;;;3.70;;
18304;SDS011;9278;52.156;21.048;2022-08-21T09:58:10;6.55;;;3.60;;
18304;SDS011;9278;52.156;21.048;2022-08-21T10:00:38;6.38;;;3.55;;
18304;SDS011;9278;52.156;21.048;2022-08-21T10:03:07;5.07;;;3.25;;
18304;SDS011;9278;52.156;21.048;2022-08-21T10:05:50;7.47;;;3.35;;
18304;SDS011;9278;52.156;21.048;2022-08-21T10:08:20;5.38;;;3.20;;
18304;SDS011;9278;52.156;21.048;2022-08-21T10:10:50;11.45;;;3.33;;
18304;SDS011;9278;52.156;21.048;2022-08-21T10:13:24;5.78;;;3.65;;
18304;SDS011;9278;52.156;21.048;2022-08-21T10:16:05;6.28;;;3.63;;
18304;SDS011;9278;52.156;21.048;2022-08-21T10:18:44;7.53;;;3.55;;
18304;SDS011;9278;52.156;21.048;2022-08-21T10:21:19;5.25;;;3.63;;
18304;SDS011;9278;52.156;21.048;2022-08-21T10:23:53;6.78;;;3.10;;
18304;SDS011;9278;52.156;21.048;2022-08-21T10:26:34;6.95;;;3.17;;
18304;SDS011;9278;52.156;21.048;2022-08-21T10:29:14;6.63;;;3.33;;
18304;SDS011;9278;52.156;21.048;2022-08-21T10:31:59;6.22;;;3.10;;
18304;SDS011;9278;52.156;21.048;2022-08-21T10:34:50;8.52;;;3.42;;
18304;SDS011;9278;52.156;21.048;2022-08-21T10:37:38;5.18;;;3.22;;
18304;SDS011;9278;52.156;21.048;2022-08-21T10:40:20;4.90;;;3.30;;
18304;SDS011;9278;52.156;21.048;2022-08-21T10:43:01;5.40;;;3.35;;
18304;SDS011;9278;52.156;21.048;2022-08-21T10:45:44;8.70;;;3.00;;
18304;SDS011;9278;52.156;21.048;2022-08-21T10:48:22;9.52;;;3.15;;
18304;SDS011;9278;52.156;21.048;2022-08-21T10:50:56;5.60;;;3.45;;
18304;SDS011;9278;52.156;21.048;2022-08-21T10:53:45;4.47;;;2.70;;
18304;SDS011;9278;52.156;21.048;2022-08-21T10:56:21;4.82;;;3.00;;
18304;SDS011;9278;52.156;21.048;2022-08-21T10:58:57;5.70;;;2.90;;
18304;SDS011;9278;52.156;21.048;2022-08-21T11:01:46;6.68;;;3.10;;
18304;SDS011;9278;52.156;21.048;2022-08-21T11:04:19;5.43;;;2.90;;
18304;SDS011;9278;52.156;21.048;2022-08-21T11:07:10;5.65;;;3.10;;
18304;SDS011;9278;52.156;21.048;2022-08-21T11:09:48;5.35;;;3.10;;
18304;SDS011;9278;52.156;21.048;2022-08-21T11:12:20;4.90;;;3.03;;
18304;SDS011;9278;52.156;21.048;2022-08-21T11:14:57;5.20;;;2.72;;
18304;SDS011;9278;52.156;21.048;2022-08-21T11:17:31;5.72;;;3.15;;
18304;SDS011;9278;52.156;21.048;2022-08-21T11:20:05;5.45;;;3.25;;
18304;SDS011;9278;52.156;21.048;2022-08-21T11:22:38;4.53;;;2.67;;
18304;SDS011;9278;52.156;21.048;2022-08-21T11:25:16;5.28;;;3.10;;
18304;SDS011;9278;52.156;21.048;2022-08-21T11:27:49;10.45;;;3.25;;
18304;SDS011;9278;52.156;21.048;2022-08-21T11:30:21;4.22;;;2.80;;
18304;SDS011;9278;52.156;21.048;2022-08-21T11:33:01;4.97;;;2.80;;
18304;SDS011;9278;52.156;21.048;2022-08-21T11:35:37;5.43;;;2.80;;
18304;SDS011;9278;52.156;21.048;2022-08-21T11:38:18;4.43;;;2.70;;
18304;SDS011;9278;52.156;21.048;2022-08-21T11:41:02;4.88;;;2.50;;
18304;SDS011;9278;52.156;21.048;2022-08-21T11:43:41;4.25;;;2.60;;
18304;SDS011;9278;52.156;21.048;2022-08-21T11:46:15;5.95;;;2.80;;
18304;SDS011;9278;52.156;21.048;2022-08-21T11:48:55;3.22;;;2.60;;
18304;SDS011;9278;52.156;21.048;2022-08-21T11:51:41;4.80;;;2.58;;
18304;SDS011;9278;52.156;21.048;2022-08-21T11:54:16;6.22;;;2.70;;
18304;SDS011;9278;52.156;21.048;2022-08-21T11:57:02;6.63;;;3.25;;
18304;SDS011;9278;52.156;21.048;2022-08-21T11:59:36;5.78;;;2.97;;
18304;SDS011;9278;52.156;21.048;2022-08-21T12:02:09;4.07;;;2.70;;
18304;SDS011;9278;52.156;21.048;2022-08-21T12:04:42;6.18;;;3.03;;
18304;SDS011;9278;52.156;21.048;2022-08-21T12:07:16;6.13;;;3.00;;
18304;SDS011;9278;52.156;21.048;2022-08-21T12:09:52;4.10;;;3.08;;
18304;SDS011;9278;52.156;21.048;2022-08-21T12:12:25;5.60;;;2.78;;
18304;SDS011;9278;52.156;21.048;2022-08-21T12:17:55;5.82;;;3.65;;
18304;SDS011;9278;52.156;21.048;2022-08-21T12:20:36;5.57;;;2.90;;
18304;SDS011;9278;52.156;21.048;2022-08-21T12:23:18;5.78;;;3.00;;
18304;SDS011;9278;52.156;21.048;2022-08-21T12:26:09;3.28;;;2.90;;
18304;SDS011;9278;52.156;21.048;2022-08-21T12:28:45;3.08;;;2.67;;
18304;SDS011;9278;52.156;21.048;2022-08-21T12:31:21;4.30;;;2.70;;
18304;SDS011;9278;52.156;21.048;2022-08-21T12:33:52;9.95;;;3.00;;
18304;SDS011;9278;52.156;21.048;2022-08-21T12:36:26;3.95;;;2.90;;
18304;SDS011;9278;52.156;21.048;2022-08-21T12:39:09;4.82;;;2.97;;
18304;SDS011;9278;52.156;21.048;2022-08-21T12:41:43;6.32;;;2.78;;
18304;SDS011;9278;52.156;21.048;2022-08-21T12:44:17;5.15;;;2.80;;
18304;SDS011;9278;52.156;21.048;2022-08-21T12:46:52;5.53;;;2.50;;
18304;SDS011;9278;52.156;21.048;2022-08-21T12:49:26;7.65;;;3.00;;
18304;SDS011;9278;52.156;21.048;2022-08-21T12:52:01;3.38;;;2.88;;
18304;SDS011;9278;52.156;21.048;2022-08-21T12:54:38;5.82;;;2.70;;
18304;SDS011;9278;52.156;21.048;2022-08-21T12:57:08;4.43;;;2.60;;
18304;SDS011;9278;52.156;21.048;2022-08-21T12:59:51;6.50;;;2.80;;
18304;SDS011;9278;52.156;21.048;2022-08-21T13:02:21;3.90;;;2.70;;
18304;SDS011;9278;52.156;21.048;2022-08-21T13:04:52;5.93;;;2.75;;
18304;SDS011;9278;52.156;21.048;2022-08-21T13:07:25;4.63;;;2.88;;
18304;SDS011;9278;52.156;21.048;2022-08-21T13:09:57;6.65;;;3.03;;
18304;SDS011;9278;52.156;21.048;2022-08-21T13:12:27;3.20;;;2.80;;
18304;SDS011;9278;52.156;21.048;2022-08-21T13:15:00;5.70;;;2.45;;
18304;SDS011;9278;52.156;21.048;2022-08-21T13:17:36;4.25;;;2.92;;
18304;SDS011;9278;52.156;21.048;2022-08-21T13:20:07;4.50;;;2.60;;
18304;SDS011;9278;52.156;21.048;2022-08-21T13:22:45;5.85;;;3.20;;
18304;SDS011;9278;52.156;21.048;2022-08-21T13:25:14;3.17;;;2.72;;
18304;SDS011;9278;52.156;21.048;2022-08-21T13:27:55;4.65;;;2.63;;
18304;SDS011;9278;52.156;21.048;2022-08-21T13:30:27;4.78;;;2.75;;
18304;SDS011;9278;52.156;21.048;2022-08-21T13:32:57;3.83;;;2.90;;
18304;SDS011;9278;52.156;21.048;2022-08-21T13:35:28;3.75;;;2.72;;
18304;SDS011;9278;52.156;21.048;2022-08-21T13:38:03;4.78;;;3.22;;
18304;SDS011;9278;52.156;21.048;2022-08-21T13:40:36;5.55;;;2.78;;
18304;SDS011;9278;52.156;21.048;2022-08-21T13:43:10;5.20;;;2.85;;
18304;SDS011;9278;52.156;21.048;2022-08-21T13:45:49;3.40;;;2.72;;
18304;SDS011;9278;52.156;21.048;2022-08-21T13:48:18;4.65;;;2.88;;
18304;SDS011;9278;52.156;21.048;2022-08-21T13:50:47;4.30;;;2.60;;
18304;SDS011;9278;52.156;21.048;2022-08-21T13:53:20;3.15;;;2.80;;
18304;SDS011;9278;52.156;21.048;2022-08-21T13:55:50;5.03;;;2.90;;
18304;SDS011;9278;52.156;21.048;2022-08-21T13:58:25;4.18;;;2.80;;
18304;SDS011;9278;52.156;21.048;2022-08-21T14:00:56;5.82;;;3.05;;
18304;SDS011;9278;52.156;21.048;2022-08-21T14:03:31;5.47;;;2.70;;
18304;SDS011;9278;52.156;21.048;2022-08-21T14:06:10;5.15;;;3.08;;
18304;SDS011;9278;52.156;21.048;2022-08-21T14:08:40;4.90;;;3.00;;
18304;SDS011;9278;52.156;21.048;2022-08-21T14:11:10;6.38;;;2.70;;
18304;SDS011;9278;52.156;21.048;2022-08-21T14:13:40;3.67;;;3.08;;
18304;SDS011;9278;52.156;21.048;2022-08-21T14:16:14;5.95;;;2.97;;
18304;SDS011;9278;52.156;21.048;2022-08-21T14:18:45;6.55;;;2.80;;
18304;SDS011;9278;52.156;21.048;2022-08-21T14:21:23;3.95;;;3.00;;
18304;SDS011;9278;52.156;21.048;2022-08-21T14:24:03;3.42;;;2.78;;
18304;SDS011;9278;52.156;21.048;2022-08-21T14:26:34;5.38;;;2.90;;
18304;SDS011;9278;52.156;21.048;2022-08-21T14:29:09;7.95;;;3.00;;
18304;SDS011;9278;52.156;21.048;2022-08-21T14:31:41;5.72;;;2.83;;
18304;SDS011;9278;52.156;21.048;2022-08-21T14:34:11;3.83;;;2.58;;
18304;SDS011;9278;52.156;21.048;2022-08-21T14:36:45;3.35;;;2.75;;
18304;SDS011;9278;52.156;21.048;2022-08-21T14:39:14;5.10;;;2.70;;
18304;SDS011;9278;52.156;21.048;2022-08-21T14:41:42;3.97;;;2.65;;
18304;SDS011;9278;52.156;21.048;2022-08-21T14:44:12;5.22;;;2.90;;
18304;SDS011;9278;52.156;21.048;2022-08-21T14:46:43;5.03;;;2.80;;
18304;SDS011;9278;52.156;21.048;2022-08-21T14:49:23;5.88;;;3.03;;
18304;SDS011;9278;52.156;21.048;2022-08-21T14:51:54;5.63;;;2.83;;
18304;SDS011;9278;52.156;21.048;2022-08-21T14:54:24;4.18;;;2.72;;
18304;SDS011;9278;52.156;21.048;2022-08-21T14:56:57;5.18;;;2.80;;
18304;SDS011;9278;52.156;21.048;2022-08-21T14:59:27;6.50;;;3.05;;
18304;SDS011;9278;52.156;21.048;2022-08-21T15:01:58;3.00;;;2.55;;
18304;SDS011;9278;52.156;21.048;2022-08-21T15:04:26;3.90;;;2.63;;
18304;SDS011;9278;52.156;21.048;2022-08-21T15:06:55;3.17;;;2.55;;
18304;SDS011;9278;52.156;21.048;2022-08-21T15:09:23;4.38;;;2.50;;
18304;SDS011;9278;52.156;21.048;2022-08-21T15:11:52;4.72;;;2.72;;
18304;SDS011;9278;52.156;21.048;2022-08-21T15:14:23;4.10;;;2.95;;
18304;SDS011;9278;52.156;21.048;2022-08-21T15:16:53;5.93;;;3.20;;